Portada
METAR-TAF:

METAR-TAF

Aeropuertos :

Aeropuerto Internacional de La Chinita

Maracaibo, Venezuela

latitud: 10-34N, longitud: 071-44W, altitud: 66 m

Observación

El informe se hizo hace 17 horas y 52 minutos, a las 13:00 UTC
Viento 1 kt del este
Temperatura 29°C
Humedad 89%
Presión 1013 hPa
Visibilidad 10 km o más
Nubes dispersas a una altura de 1600 ft

METAR: SVMC 211300Z 09001KT 9999 SCT016 29/27 Q1013

Hora: 02:52 (06:52 UTC)

Pronóstico

El informe se hizo hace 2 horas y 52 minutos, a las 04:00 UTC
Pronóstico válido del 22 a las 06 UTC al 23 a las 06 UTC
Viento 8 kt del sur-suroeste
Visibilidad 10 km o más
Escasas nubes a una altura de 1600 ft
Evolucionando progresivamente
del 22 a las 06 UTC al 22 a las 10 UTC
Viento 8 kt del oeste
Visibilidad: 9000 m
Nubes dispersas a una altura de 1300 ft
llovizna ligera

TAF: SVMC 220400Z 2206/2306 20008KT 9999 FEW016 TX35/2218Z TN26/2309Z BECMG 2206/2210 28008KT 9000 -DZ SCT013

Observaciones y pronósticos meteorológicos de más de 4000 aeropuertos (mensajes METAR y TAF).

Los puntos amarillos y rojos representan las estaciones disponibles.

Ponga el ratón en el punto deseado para ver el nombre de la estación.

Haga clic para ver las observaciones y los pronósticos meteorológicos.

Para cambiar el mapa : haga clic en los botones verdes con una cruz de color negro para hacer un zoom, en el botón verde con un guión para alejar o en las flechas verdes para mapas adyacentes.


METAR-TAF: